^^
Station Historical Data
 
Daily Summary for September 19, 2017 Units:  Both    English   Metric
« Previous Day
Next Day »
Daily Weekly Monthly Yearly Custom
  Current: High: Low: Average:
Temperature: 99.4 °F /  37.4 °C 99.5 °F /  37.5 °C 64.1 °F /  17.8 °C 79.7 °F /  26.5 °C
Dew Point: 43.6 °F /  6.4 °C 51.4 °F /  10.8 °C 36.0 °F /  2.2 °C 44.2 °F /  6.8 °C
Humidity: 15% 46% 15% 30%
Wind Speed: 0.5mph /  0.8km/h 7.6mph /  12.2km/h - 0.6mph /  1km/h
Wind Gust: 3.5mph /  5.6km/h 12.7mph /  20.4km/h - -
WindSE - - East
Pressure: 29.76 in /  1007.7 hPa 29.92 in /  1013.1 hPa 29.76 in /  1007.7 hPa -
Precipitation: 0.00 in /  0 mm      
Historical Graphs
 
 
Tabular Data for September 19, 2017
Time Temperature Dew Point Pressure Wind Wind Speed Wind Gust Humidity Rainfall Rate (Hourly) solar Conditions
00:04 71.3 °F /  21.8 °C 39.1 °F /  3.9 °C 29.86in /  1011.1hPa Calm     31% 0.00in /  0mm WeatherDisplay:10.37 W/m2 CLR
00:09 71.4 °F /  21.9 °C 39.2 °F /  4 °C 29.86in /  1011.1hPa Calm     31% 0.00in /  0mm WeatherDisplay:10.37 W/m2 CLR
00:14 71.6 °F /  22 °C 38.5 °F /  3.6 °C 29.86in /  1011.1hPa Calm     30% 0.00in /  0mm WeatherDisplay:10.37 W/m2 CLR
00:20 72.1 °F /  22.3 °C 38.1 °F /  3.4 °C 29.86in /  1011.1hPa Calm     29% 0.00in /  0mm WeatherDisplay:10.37 W/m2 CLR
00:25 72.7 °F /  22.6 °C 37.7 °F /  3.2 °C 29.86in /  1011.1hPa Calm     28% 0.00in /  0mm WeatherDisplay:10.37 W/m2 CLR
00:30 73.6 °F /  23.1 °C 37.5 °F /  3.1 °C 29.86in /  1011.1hPa Calm     27% 0.00in /  0mm WeatherDisplay:10.37 W/m2 CLR
00:35 74.7 °F /  23.7 °C 36.5 °F /  2.5 °C 29.86in /  1011.1hPa Calm     25% 0.00in /  0mm WeatherDisplay:10.37 W/m2 CLR
00:40 74.9 °F /  23.8 °C 36.7 °F /  2.6 °C 29.86in /  1011.1hPa Calm     25% 0.00in /  0mm WeatherDisplay:10.37 W/m2 CLR
00:45 74.6 °F /  23.7 °C 36.4 °F /  2.4 °C 29.85in /  1010.7hPa Calm     25% 0.00in /  0mm WeatherDisplay:10.37 W/m2 CLR
00:49 74.6 °F /  23.7 °C 36.4 °F /  2.4 °C 29.85in /  1010.7hPa Calm     25% 0.00in /  0mm WeatherDisplay:10.37 W/m2 CLR
00:54 74.5 °F /  23.6 °C 37.3 °F /  2.9 °C 29.85in /  1010.7hPa Calm     26% 0.00in /  0mm WeatherDisplay:10.37 W/m2 CLR
00:59 74.2 °F /  23.4 °C 36.1 °F /  2.3 °C 29.85in /  1010.7hPa Calm     25% 0.00in /  0mm WeatherDisplay:10.37 W/m2 CLR
01:04 73.5 °F /  23.1 °C 36.5 °F /  2.5 °C 29.85in /  1010.7hPa Calm     26% 0.00in /  0mm WeatherDisplay:10.37 W/m2 CLR
01:09 72.5 °F /  22.5 °C 37.5 °F /  3.1 °C 29.85in /  1010.7hPa Calm     28% 0.00in /  0mm WeatherDisplay:10.37 W/m2 CLR
01:14 71.9 °F /  22.2 °C 37.0 °F /  2.8 °C 29.85in /  1010.7hPa Calm     28% 0.00in /  0mm WeatherDisplay:10.37 W/m2 CLR
01:19 71.8 °F /  22.1 °C 36.0 °F /  2.2 °C 29.85in /  1010.7hPa Calm     27% 0.00in /  0mm WeatherDisplay:10.37 W/m2 CLR
01:21 72.0 °F /  22.2 °C 36.2 °F /  2.3 °C 29.85in /  1010.7hPa Calm     27% 0.00in /  0mm WeatherDisplay:10.37 W/m2 CLR
01:26 72.3 °F /  22.4 °C 36.4 °F /  2.4 °C 29.85in /  1010.7hPa Calm     27% 0.00in /  0mm WeatherDisplay:10.37 W/m2 CLR
01:31 73.2 °F /  22.9 °C 37.2 °F /  2.9 °C 29.85in /  1010.7hPa Calm     27% 0.00in /  0mm WeatherDisplay:10.37 W/m2 CLR
01:36 73.3 °F /  22.9 °C 37.3 °F /  2.9 °C 29.85in /  1010.7hPa Calm     27% 0.00in /  0mm WeatherDisplay:10.37 W/m2 CLR
01:41 73.5 °F /  23.1 °C 37.5 °F /  3.1 °C 29.84in /  1010.4hPa Calm     27% 0.00in /  0mm WeatherDisplay:10.37 W/m2 CLR
01:46 73.4 °F /  23 °C 37.4 °F /  3 °C 29.84in /  1010.4hPa Calm     27% 0.00in /  0mm WeatherDisplay:10.37 W/m2 CLR
01:51 73.4 °F /  23 °C 37.4 °F /  3 °C 29.84in /  1010.4hPa Calm     27% 0.00in /  0mm WeatherDisplay:10.37 W/m2 CLR
01:57 73.3 °F /  22.9 °C 37.3 °F /  2.9 °C 29.84in /  1010.4hPa Calm     27% 0.00in /  0mm WeatherDisplay:10.37 W/m2 CLR
02:02 73.5 °F /  23.1 °C 38.4 °F /  3.6 °C 29.84in /  1010.4hPa Calm     28% 0.00in /  0mm WeatherDisplay:10.37 W/m2 CLR
02:07 73.4 °F /  23 °C 38.3 °F /  3.5 °C 29.84in /  1010.4hPa Calm     28% 0.00in /  0mm WeatherDisplay:10.37 W/m2 CLR
02:12 73.0 °F /  22.8 °C 38.9 °F /  3.8 °C 29.84in /  1010.4hPa Calm     29% 0.00in /  0mm WeatherDisplay:10.37 W/m2 CLR
02:17 72.5 °F /  22.5 °C 39.3 °F /  4.1 °C 29.84in /  1010.4hPa Calm     30% 0.00in /  0mm WeatherDisplay:10.37 W/m2 CLR
02:22 72.2 °F /  22.3 °C 39.0 °F /  3.9 °C 29.84in /  1010.4hPa Calm     30% 0.00in /  0mm WeatherDisplay:10.37 W/m2 CLR
02:27 71.9 °F /  22.2 °C 38.8 °F /  3.8 °C 29.84in /  1010.4hPa Calm     30% 0.00in /  0mm WeatherDisplay:10.37 W/m2 CLR
02:32 71.3 °F /  21.8 °C 39.9 °F /  4.4 °C 29.84in /  1010.4hPa Calm     32% 0.00in /  0mm WeatherDisplay:10.37 W/m2 CLR
02:37 70.6 °F /  21.4 °C 40.1 °F /  4.5 °C 29.84in /  1010.4hPa Calm     33% 0.00in /  0mm WeatherDisplay:10.37 W/m2 CLR
02:42 70.3 °F /  21.3 °C 39.8 °F /  4.3 °C 29.84in /  1010.4hPa Calm     33% 0.00in /  0mm WeatherDisplay:10.37 W/m2 CLR
02:47 70.1 °F /  21.2 °C 39.6 °F /  4.2 °C 29.84in /  1010.4hPa Calm     33% 0.00in /  0mm WeatherDisplay:10.37 W/m2 CLR
02:52 69.7 °F /  20.9 °C 40.1 °F /  4.5 °C 29.84in /  1010.4hPa Calm     34% 0.00in /  0mm WeatherDisplay:10.37 W/m2 CLR
02:57 69.3 °F /  20.7 °C 40.5 °F /  4.7 °C 29.84in /  1010.4hPa Calm     35% 0.00in /  0mm WeatherDisplay:10.37 W/m2 CLR
03:02 68.8 °F /  20.4 °C 40.0 °F /  4.4 °C 29.84in /  1010.4hPa Calm     35% 0.00in /  0mm WeatherDisplay:10.37 W/m2 CLR
03:07 68.5 °F /  20.3 °C 39.0 °F /  3.9 °C 29.84in /  1010.4hPa Calm     34% 0.00in /  0mm WeatherDisplay:10.37 W/m2 CLR
03:34 67.9 °F /  19.9 °C 39.2 °F /  4 °C 29.85in /  1010.7hPa Calm     35% 0.00in /  0mm WeatherDisplay:10.37 W/m2 CLR
03:39 67.6 °F /  19.8 °C 39.7 °F /  4.3 °C 29.85in /  1010.7hPa Calm     36% 0.00in /  0mm WeatherDisplay:10.37 W/m2 CLR
03:44 67.3 °F /  19.6 °C 39.4 °F /  4.1 °C 29.85in /  1010.7hPa Calm     36% 0.00in /  0mm WeatherDisplay:10.37 W/m2 CLR
03:49 67.0 °F /  19.4 °C 39.1 °F /  3.9 °C 29.85in /  1010.7hPa Calm     36% 0.00in /  0mm WeatherDisplay:10.37 W/m2 CLR
03:54 66.8 °F /  19.3 °C 39.7 °F /  4.3 °C 29.85in /  1010.7hPa Calm     37% 0.00in /  0mm WeatherDisplay:10.37 W/m2 CLR
03:59 67.0 °F /  19.4 °C 40.5 °F /  4.7 °C 29.85in /  1010.7hPa Calm     38% 0.00in /  0mm WeatherDisplay:10.37 W/m2 CLR
04:04 67.2 °F /  19.6 °C 40.0 °F /  4.4 °C 29.85in /  1010.7hPa Calm     37% 0.00in /  0mm WeatherDisplay:10.37 W/m2 CLR
04:09 67.7 °F /  19.8 °C 40.5 °F /  4.7 °C 29.85in /  1010.7hPa Calm     37% 0.00in /  0mm WeatherDisplay:10.37 W/m2 CLR
04:15 67.4 °F /  19.7 °C 40.9 °F /  4.9 °C 29.86in /  1011.1hPa Calm     38% 0.00in /  0mm WeatherDisplay:10.37 W/m2 CLR
04:20 67.2 °F /  19.6 °C 41.4 °F /  5.2 °C 29.86in /  1011.1hPa Calm     39% 0.00in /  0mm WeatherDisplay:10.37 W/m2 CLR
04:25 67.2 °F /  19.6 °C 40.7 °F /  4.8 °C 29.86in /  1011.1hPa Calm     38% 0.00in /  0mm WeatherDisplay:10.37 W/m2 CLR
04:30 67.8 °F /  19.9 °C 41.2 °F /  5.1 °C 29.86in /  1011.1hPa Calm     38% 0.00in /  0mm WeatherDisplay:10.37 W/m2 CLR
04:35 67.9 °F /  19.9 °C 41.3 °F /  5.2 °C 29.86in /  1011.1hPa Calm     38% 0.00in /  0mm WeatherDisplay:10.37 W/m2 CLR
04:40 67.6 °F /  19.8 °C 41.1 °F /  5.1 °C 29.86in /  1011.1hPa Calm     38% 0.00in /  0mm WeatherDisplay:10.37 W/m2 CLR
04:45 67.3 °F /  19.6 °C 41.5 °F /  5.3 °C 29.87in /  1011.4hPa Calm     39% 0.00in /  0mm WeatherDisplay:10.37 W/m2 CLR
04:50 66.9 °F /  19.4 °C 41.8 °F /  5.4 °C 29.87in /  1011.4hPa Calm     40% 0.00in /  0mm WeatherDisplay:10.37 W/m2 CLR
04:55 66.5 °F /  19.2 °C 42.1 °F /  5.6 °C 29.87in /  1011.4hPa Calm     41% 0.00in /  0mm WeatherDisplay:10.37 W/m2 CLR
05:00 66.3 °F /  19.1 °C 42.5 °F /  5.8 °C 29.88in /  1011.7hPa Calm     42% 0.00in /  0mm WeatherDisplay:10.37 W/m2 CLR
05:05 65.9 °F /  18.8 °C 42.1 °F /  5.6 °C 29.88in /  1011.7hPa Calm     42% 0.00in /  0mm WeatherDisplay:10.37 W/m2 CLR
05:10 65.4 °F /  18.6 °C 41.7 °F /  5.4 °C 29.88in /  1011.7hPa Calm     42% 0.00in /  0mm WeatherDisplay:10.37 W/m2 CLR
05:15 65.9 °F /  18.8 °C 42.8 °F /  6 °C 29.88in /  1011.7hPa Calm     43% 0.00in /  0mm WeatherDisplay:10.37 W/m2 CLR
05:20 65.6 °F /  18.7 °C 41.9 °F /  5.5 °C 29.88in /  1011.7hPa Calm     42% 0.00in /  0mm WeatherDisplay:10.37 W/m2 CLR
05:25 65.3 °F /  18.5 °C 42.2 °F /  5.7 °C 29.88in /  1011.7hPa Calm     43% 0.00in /  0mm WeatherDisplay:10.37 W/m2 CLR
05:30 65.3 °F /  18.5 °C 42.8 °F /  6 °C 29.88in /  1011.7hPa Calm     44% 0.00in /  0mm WeatherDisplay:10.37 W/m2 CLR
05:34 65.0 °F /  18.3 °C 42.5 °F /  5.8 °C 29.88in /  1011.7hPa Calm     44% 0.00in /  0mm WeatherDisplay:10.37 W/m2 CLR
05:40 64.8 °F /  18.2 °C 43.5 °F /  6.4 °C 29.88in /  1011.7hPa Calm     46% 0.00in /  0mm WeatherDisplay:10.37 W/m2 CLR
05:45 64.6 °F /  18.1 °C 43.3 °F /  6.3 °C 29.89in /  1012.1hPa Calm     46% 0.00in /  0mm WeatherDisplay:10.37 W/m2 CLR
05:50 64.9 °F /  18.3 °C 42.5 °F /  5.8 °C 29.89in /  1012.1hPa Calm     44% 0.00in /  0mm WeatherDisplay:10.37 W/m2 CLR
05:55 65.0 °F /  18.3 °C 42.0 °F /  5.6 °C 29.89in /  1012.1hPa Calm     43% 0.00in /  0mm WeatherDisplay:10.37 W/m2 CLR
06:00 64.8 °F /  18.2 °C 42.4 °F /  5.8 °C 29.90in /  1012.4hPa Calm     44% 0.00in /  0mm WeatherDisplay:10.37 W/m2 CLR
06:05 64.4 °F /  18 °C 42.0 °F /  5.6 °C 29.90in /  1012.4hPa Calm     44% 0.00in /  0mm WeatherDisplay:10.37 W/m2 CLR
06:10 64.3 °F /  17.9 °C 41.3 °F /  5.2 °C 29.90in /  1012.4hPa Calm     43% 0.00in /  0mm WeatherDisplay:10.37 W/m2 CLR
06:15 64.1 °F /  17.8 °C 41.8 °F /  5.4 °C 29.91in /  1012.8hPa Calm     44% 0.00in /  0mm WeatherDisplay:10.37 W/m2 CLR
06:20 64.2 °F /  17.9 °C 41.2 °F /  5.1 °C 29.91in /  1012.8hPa Calm     43% 0.00in /  0mm WeatherDisplay:10.37 W/m2 CLR
06:25 64.2 °F /  17.9 °C 41.3 °F /  5.2 °C 29.91in /  1012.8hPa Calm     43% 0.00in /  0mm WeatherDisplay:10.37 W/m2 CLR
06:30 64.1 °F /  17.8 °C 41.1 °F /  5.1 °C 29.91in /  1012.8hPa Calm     43% 0.00in /  0mm WeatherDisplay:10.37 W/m2 CLR
06:35 64.1 °F /  17.8 °C 41.1 °F /  5.1 °C 29.91in /  1012.8hPa Calm     43% 0.00in /  0mm WeatherDisplay:10.37 W/m2 CLR
06:40 64.1 °F /  17.8 °C 41.1 °F /  5.1 °C 29.91in /  1012.8hPa Calm     43% 0.00in /  0mm WeatherDisplay:10.37 W/m2 CLR
06:45 64.6 °F /  18.1 °C 41.5 °F /  5.3 °C 29.91in /  1012.8hPa Calm     43% 0.00in /  0mm WeatherDisplay:10.37 W/m2 CLR
06:50 65.2 °F /  18.4 °C 40.9 °F /  4.9 °C 29.91in /  1012.8hPa Calm     41% 0.00in /  0mm WeatherDisplay:10.37 W/m2 CLR
06:55 66.1 °F /  18.9 °C 41.1 °F /  5.1 °C 29.91in /  1012.8hPa Calm     40% 0.00in /  0mm WeatherDisplay:10.37 W/m2 CLR
07:00 66.6 °F /  19.2 °C 41.5 °F /  5.3 °C 29.91in /  1012.8hPa Calm     40% 0.00in /  0mm WeatherDisplay:10.37 W/m2 CLR
07:05 66.5 °F /  19.2 °C 42.1 °F /  5.6 °C 29.91in /  1012.8hPa Calm     41% 0.00in /  0mm WeatherDisplay:10.37 W/m2 CLR
07:10 66.6 °F /  19.2 °C 42.8 °F /  6 °C 29.91in /  1012.8hPa Calm     42% 0.00in /  0mm WeatherDisplay:10.37 W/m2 CLR
07:15 66.7 °F /  19.3 °C 43.5 °F /  6.4 °C 29.92in /  1013.1hPa Calm     43% 0.00in /  0mm WeatherDisplay:10.37 W/m2 CLR
07:20 67.2 °F /  19.6 °C 43.9 °F /  6.6 °C 29.92in /  1013.1hPa Calm     43% 0.00in /  0mm WeatherDisplay:10.37 W/m2 CLR
07:25 67.6 °F /  19.8 °C 44.3 °F /  6.8 °C 29.92in /  1013.1hPa Calm     43% 0.00in /  0mm WeatherDisplay:10.37 W/m2 CLR
07:30 68.2 °F /  20.1 °C 44.8 °F /  7.1 °C 29.92in /  1013.1hPa Calm     43% 0.00in /  0mm WeatherDisplay:10.37 W/m2 CLR
07:35 69.2 °F /  20.7 °C 44.5 °F /  6.9 °C 29.92in /  1013.1hPa Calm     41% 0.00in /  0mm WeatherDisplay:10.37 W/m2 CLR
07:40 69.9 °F /  21.1 °C 44.5 °F /  6.9 °C 29.92in /  1013.1hPa Calm     40% 0.00in /  0mm WeatherDisplay:10.37 W/m2 CLR
07:45 70.9 °F /  21.6 °C 44.0 °F /  6.7 °C 29.92in /  1013.1hPa Calm     38% 0.00in /  0mm WeatherDisplay:10.37 W/m2 CLR
07:50 71.5 °F /  21.9 °C 44.5 °F /  6.9 °C 29.92in /  1013.1hPa Calm     38% 0.00in /  0mm WeatherDisplay:10.37 W/m2 CLR
07:55 72.1 °F /  22.3 °C 43.7 °F /  6.5 °C 29.92in /  1013.1hPa Calm     36% 0.00in /  0mm WeatherDisplay:10.37 W/m2 CLR
08:00 72.8 °F /  22.7 °C 44.3 °F /  6.8 °C 29.92in /  1013.1hPa Calm     36% 0.00in /  0mm WeatherDisplay:10.37 W/m2 CLR
08:05 73.4 °F /  23 °C 44.1 °F /  6.7 °C 29.92in /  1013.1hPa Calm     35% 0.00in /  0mm WeatherDisplay:10.37 W/m2 CLR
08:10 74.1 °F /  23.4 °C 43.9 °F /  6.6 °C 29.92in /  1013.1hPa Calm     34% 0.00in /  0mm WeatherDisplay:10.37 W/m2 CLR
08:15 74.6 °F /  23.7 °C 43.6 °F /  6.4 °C 29.92in /  1013.1hPa Calm     33% 0.00in /  0mm WeatherDisplay:10.37 W/m2 CLR
08:20 75.0 °F /  23.9 °C 44.7 °F /  7.1 °C 29.92in /  1013.1hPa Calm     34% 0.00in /  0mm WeatherDisplay:10.37 W/m2 CLR
08:25 75.5 °F /  24.2 °C 45.2 °F /  7.3 °C 29.92in /  1013.1hPa Calm     34% 0.00in /  0mm WeatherDisplay:10.37 W/m2 CLR
08:30 76.0 °F /  24.4 °C 45.6 °F /  7.6 °C 29.92in /  1013.1hPa Calm     34% 0.00in /  0mm WeatherDisplay:10.37 W/m2 CLR
08:35 76.5 °F /  24.7 °C 46.0 °F /  7.8 °C 29.92in /  1013.1hPa Calm     34% 0.00in /  0mm WeatherDisplay:10.37 W/m2 CLR
08:40 76.9 °F /  24.9 °C 45.6 °F /  7.6 °C 29.92in /  1013.1hPa Calm     33% 0.00in /  0mm WeatherDisplay:10.37 W/m2 CLR
08:45 77.3 °F /  25.2 °C 45.1 °F /  7.3 °C 29.92in /  1013.1hPa Calm     32% 0.00in /  0mm WeatherDisplay:10.37 W/m2 CLR
08:50 77.7 °F /  25.4 °C 46.3 °F /  7.9 °C 29.92in /  1013.1hPa Calm     33% 0.00in /  0mm WeatherDisplay:10.37 W/m2 CLR
08:55 78.4 °F /  25.8 °C 46.9 °F /  8.3 °C 29.92in /  1013.1hPa Calm     33% 0.00in /  0mm WeatherDisplay:10.37 W/m2 CLR
09:00 78.9 °F /  26.1 °C 46.5 °F /  8.1 °C 29.92in /  1013.1hPa East 1.6mph /  2.6km/h 4.6mph /  7.4km/h 32% 0.00in /  0mm WeatherDisplay:10.37 W/m2 CLR
09:05 79.7 °F /  26.5 °C 46.4 °F /  8 °C 29.92in /  1013.1hPa East 0.9mph /  1.4km/h 2.3mph /  3.7km/h 31% 0.00in /  0mm WeatherDisplay:10.37 W/m2 CLR
09:10 80.0 °F /  26.7 °C 46.6 °F /  8.1 °C 29.92in /  1013.1hPa East 1.0mph /  1.6km/h 1.2mph /  1.9km/h 31% 0.00in /  0mm WeatherDisplay:10.37 W/m2 CLR
09:15 80.3 °F /  26.8 °C 46.0 °F /  7.8 °C 29.92in /  1013.1hPa East 2.0mph /  3.2km/h   30% 0.00in /  0mm WeatherDisplay:10.37 W/m2 CLR
09:20 80.7 °F /  27.1 °C 46.4 °F /  8 °C 29.92in /  1013.1hPa Calm     30% 0.00in /  0mm WeatherDisplay:10.37 W/m2 CLR
09:31 81.8 °F /  27.7 °C 46.4 °F /  8 °C 29.92in /  1013.1hPa Calm     29% 0.00in /  0mm WeatherDisplay:10.37 W/m2 CLR
09:36 82.1 °F /  27.8 °C 45.8 °F /  7.7 °C 29.92in /  1013.1hPa Calm     28% 0.00in /  0mm WeatherDisplay:10.37 W/m2 CLR
09:41 82.6 °F /  28.1 °C 45.2 °F /  7.3 °C 29.92in /  1013.1hPa Calm     27% 0.00in /  0mm WeatherDisplay:10.37 W/m2 CLR
09:46 82.9 °F /  28.3 °C 46.4 °F /  8 °C 29.91in /  1012.8hPa Calm     28% 0.00in /  0mm WeatherDisplay:10.37 W/m2 CLR
09:51 83.7 °F /  28.7 °C 46.2 °F /  7.9 °C 29.91in /  1012.8hPa Calm     27% 0.00in /  0mm WeatherDisplay:10.37 W/m2 CLR
09:56 84.3 °F /  29.1 °C 46.7 °F /  8.2 °C 29.91in /  1012.8hPa Calm     27% 0.00in /  0mm WeatherDisplay:10.37 W/m2 CLR
10:01 84.6 °F /  29.2 °C 45.9 °F /  7.7 °C 29.91in /  1012.8hPa Calm     26% 0.00in /  0mm WeatherDisplay:10.37 W/m2 CLR
10:06 85.3 °F /  29.6 °C 47.5 °F /  8.6 °C 29.91in /  1012.8hPa Calm     27% 0.00in /  0mm WeatherDisplay:10.37 W/m2 CLR
10:11 86.1 °F /  30.1 °C 48.2 °F /  9 °C 29.91in /  1012.8hPa East 0.9mph /  1.4km/h 3.0mph /  4.8km/h 27% 0.00in /  0mm WeatherDisplay:10.37 W/m2 CLR
10:16 86.3 °F /  30.2 °C 48.4 °F /  9.1 °C 29.91in /  1012.8hPa Calm     27% 0.00in /  0mm WeatherDisplay:10.37 W/m2 CLR
10:21 86.6 °F /  30.3 °C 47.6 °F /  8.7 °C 29.91in /  1012.8hPa Calm     26% 0.00in /  0mm WeatherDisplay:10.37 W/m2 CLR
10:26 87.4 °F /  30.8 °C 49.3 °F /  9.6 °C 29.91in /  1012.8hPa East 2.9mph /  4.7km/h 4.6mph /  7.4km/h 27% 0.00in /  0mm WeatherDisplay:10.37 W/m2 CLR
10:31 87.7 °F /  30.9 °C 48.6 °F /  9.2 °C 29.91in /  1012.8hPa Calm   2.3mph /  3.7km/h 26% 0.00in /  0mm WeatherDisplay:10.37 W/m2 CLR
10:37 87.9 °F /  31.1 °C 48.7 °F /  9.3 °C 29.91in /  1012.8hPa East 2.2mph /  3.5km/h 5.8mph /  9.3km/h 26% 0.00in /  0mm WeatherDisplay:10.37 W/m2 CLR
10:42 88.8 °F /  31.6 °C 49.5 °F /  9.7 °C 29.90in /  1012.4hPa East 1.1mph /  1.8km/h 4.6mph /  7.4km/h 26% 0.00in /  0mm WeatherDisplay:10.37 W/m2 CLR
10:47 88.7 °F /  31.5 °C 49.4 °F /  9.7 °C 29.90in /  1012.4hPa Calm   5.0mph /  8km/h 26% 0.00in /  0mm WeatherDisplay:10.37 W/m2 CLR
10:52 89.6 °F /  32 °C 50.2 °F /  10.1 °C 29.90in /  1012.4hPa East 1.5mph /  2.4km/h 5.8mph /  9.3km/h 26% 0.00in /  0mm WeatherDisplay:10.37 W/m2 CLR
10:57 90.1 °F /  32.3 °C 50.6 °F /  10.3 °C 29.89in /  1012.1hPa East 0.3mph /  0.5km/h 5.0mph /  8km/h 26% 0.00in /  0mm WeatherDisplay:10.37 W/m2 CLR
11:02 89.8 °F /  32.1 °C 51.4 °F /  10.8 °C 29.89in /  1012.1hPa Calm     27% 0.00in /  0mm WeatherDisplay:10.37 W/m2 CLR
11:07 90.8 °F /  32.7 °C 50.1 °F /  10.1 °C 29.89in /  1012.1hPa East 1.8mph /  2.9km/h 5.8mph /  9.3km/h 25% 0.00in /  0mm WeatherDisplay:10.37 W/m2 CLR
11:12 90.7 °F /  32.6 °C 50.0 °F /  10 °C 29.89in /  1012.1hPa Calm     25% 0.00in /  0mm WeatherDisplay:10.37 W/m2 CLR
11:17 90.8 °F /  32.7 °C 51.2 °F /  10.7 °C 29.89in /  1012.1hPa Calm     26% 0.00in /  0mm WeatherDisplay:10.37 W/m2 CLR
11:22 90.9 °F /  32.7 °C 50.2 °F /  10.1 °C 29.89in /  1012.1hPa East 3.7mph /  6km/h 8.1mph /  13km/h 25% 0.00in /  0mm WeatherDisplay:10.37 W/m2 CLR
11:27 91.5 °F /  33.1 °C 49.6 °F /  9.8 °C 29.88in /  1011.7hPa East 1.5mph /  2.4km/h 3.5mph /  5.6km/h 24% 0.00in /  0mm WeatherDisplay:10.37 W/m2 CLR
11:32 91.6 °F /  33.1 °C 49.7 °F /  9.8 °C 29.88in /  1011.7hPa Calm   3.5mph /  5.6km/h 24% 0.00in /  0mm WeatherDisplay:10.37 W/m2 CLR
11:37 92.6 °F /  33.7 °C 50.5 °F /  10.3 °C 29.88in /  1011.7hPa East 0.4mph /  0.6km/h   24% 0.00in /  0mm WeatherDisplay:10.37 W/m2 CLR
11:43 93.1 °F /  33.9 °C 49.8 °F /  9.9 °C 29.88in /  1011.7hPa NE 2.6mph /  4.2km/h 8.1mph /  13km/h 23% 0.00in /  0mm WeatherDisplay:10.37 W/m2 CLR
11:48 93.6 °F /  34.2 °C 50.2 °F /  10.1 °C 29.88in /  1011.7hPa Calm     23% 0.00in /  0mm WeatherDisplay:10.37 W/m2 CLR
11:53 92.9 °F /  33.8 °C 48.5 °F /  9.2 °C 29.88in /  1011.7hPa Calm     22% 0.00in /  0mm WeatherDisplay:10.37 W/m2 CLR
11:58 93.1 °F /  33.9 °C 49.8 °F /  9.9 °C 29.87in /  1011.4hPa NE 1.8mph /  2.9km/h 5.0mph /  8km/h 23% 0.00in /  0mm WeatherDisplay:10.37 W/m2 CLR
12:03 93.4 °F /  34.1 °C 48.9 °F /  9.4 °C 29.87in /  1011.4hPa ENE 0.6mph /  1km/h 2.3mph /  3.7km/h 22% 0.00in /  0mm WeatherDisplay:10.37 W/m2 CLR
12:08 93.3 °F /  34.1 °C 48.8 °F /  9.3 °C 29.87in /  1011.4hPa ENE 2.5mph /  4km/h 7.0mph /  11.3km/h 22% 0.00in /  0mm WeatherDisplay:10.37 W/m2 CLR
12:13 94.2 °F /  34.6 °C 50.7 °F /  10.4 °C 29.86in /  1011.1hPa ENE 4.1mph /  6.6km/h 9.2mph /  14.8km/h 23% 0.00in /  0mm WeatherDisplay:10.37 W/m2 CLR
12:18 94.6 °F /  34.8 °C 49.9 °F /  9.9 °C 29.86in /  1011.1hPa Calm   1.2mph /  1.9km/h 22% 0.00in /  0mm WeatherDisplay:10.37 W/m2 CLR
12:23 94.4 °F /  34.7 °C 49.7 °F /  9.8 °C 29.86in /  1011.1hPa ENE 4.3mph /  6.9km/h 7.0mph /  11.3km/h 22% 0.00in /  0mm WeatherDisplay:10.37 W/m2 CLR
12:28 94.6 °F /  34.8 °C 49.9 °F /  9.9 °C 29.85in /  1010.7hPa ENE 4.5mph /  7.2km/h 7.0mph /  11.3km/h 22% 0.00in /  0mm WeatherDisplay:10.37 W/m2 CLR
12:33 95.3 °F /  35.2 °C 50.4 °F /  10.2 °C 29.85in /  1010.7hPa ENE 0.8mph /  1.3km/h 6.0mph /  9.7km/h 22% 0.00in /  0mm WeatherDisplay:10.37 W/m2 CLR
12:38 95.1 °F /  35.1 °C 49.0 °F /  9.4 °C 29.85in /  1010.7hPa Calm     21% 0.00in /  0mm WeatherDisplay:10.37 W/m2 CLR
12:43 95.0 °F /  35 °C 48.9 °F /  9.4 °C 29.84in /  1010.4hPa ENE 4.2mph /  6.8km/h 6.9mph /  11.1km/h 21% 0.00in /  0mm WeatherDisplay:10.37 W/m2 CLR
12:49 96.2 °F /  35.7 °C 49.9 °F /  9.9 °C 29.84in /  1010.4hPa ENE 1.0mph /  1.6km/h 6.9mph /  11.1km/h 21% 0.00in /  0mm WeatherDisplay:10.37 W/m2 CLR
12:51 96.1 °F /  35.6 °C 49.9 °F /  9.9 °C 29.84in /  1010.4hPa ENE 3.0mph /  4.8km/h 9.2mph /  14.8km/h 21% 0.00in /  0mm WeatherDisplay:10.37 W/m2 CLR
12:57 95.9 °F /  35.5 °C 50.9 °F /  10.5 °C 29.83in /  1010hPa ENE 1.5mph /  2.4km/h 8.0mph /  12.9km/h 22% 0.00in /  0mm WeatherDisplay:10.37 W/m2 CLR
13:02 96.4 °F /  35.8 °C 50.1 °F /  10.1 °C 29.83in /  1010hPa East 2.2mph /  3.5km/h 5.8mph /  9.3km/h 21% 0.00in /  0mm WeatherDisplay:10.37 W/m2 CLR
13:07 95.6 °F /  35.3 °C 49.4 °F /  9.7 °C 29.83in /  1010hPa East 0.9mph /  1.4km/h 3.5mph /  5.6km/h 21% 0.00in /  0mm WeatherDisplay:10.37 W/m2 CLR
13:12 96.7 °F /  35.9 °C 50.3 °F /  10.2 °C 29.82in /  1009.7hPa East 0.3mph /  0.5km/h 4.6mph /  7.4km/h 21% 0.00in /  0mm WeatherDisplay:10.37 W/m2 CLR
13:17 97.8 °F /  36.6 °C 48.6 °F /  9.2 °C 29.82in /  1009.7hPa Calm     19% 0.00in /  0mm WeatherDisplay:10.37 W/m2 CLR
13:22 98.0 °F /  36.7 °C 48.7 °F /  9.3 °C 29.82in /  1009.7hPa ESE 4.7mph /  7.6km/h 11.5mph /  18.5km/h 19% 0.00in /  0mm WeatherDisplay:10.37 W/m2 CLR
13:27 97.1 °F /  36.2 °C 48.0 °F /  8.9 °C 29.82in /  1009.7hPa ESE 0.1mph /  0.2km/h 3.5mph /  5.6km/h 19% 0.00in /  0mm WeatherDisplay:10.37 W/m2 CLR
13:32 97.0 °F /  36.1 °C 47.9 °F /  8.8 °C 29.82in /  1009.7hPa Calm     19% 0.00in /  0mm WeatherDisplay:10.37 W/m2 CLR
13:37 97.5 °F /  36.4 °C 49.7 °F /  9.8 °C 29.82in /  1009.7hPa Calm     20% 0.00in /  0mm WeatherDisplay:10.37 W/m2 CLR
13:42 97.8 °F /  36.6 °C 49.9 °F /  9.9 °C 29.81in /  1009.4hPa ESE 2.8mph /  4.5km/h 5.8mph /  9.3km/h 20% 0.00in /  0mm WeatherDisplay:10.37 W/m2 CLR
13:47 98.2 °F /  36.8 °C 48.9 °F /  9.4 °C 29.81in /  1009.4hPa ESE 2.7mph /  4.3km/h 9.2mph /  14.8km/h 19% 0.00in /  0mm WeatherDisplay:10.37 W/m2 CLR
13:52 98.1 °F /  36.7 °C 48.8 °F /  9.3 °C 29.81in /  1009.4hPa ESE 0.3mph /  0.5km/h 6.9mph /  11.1km/h 19% 0.00in /  0mm WeatherDisplay:10.37 W/m2 CLR
13:57 98.1 °F /  36.7 °C 48.8 °F /  9.3 °C 29.80in /  1009hPa ESE 3.4mph /  5.5km/h 12.7mph /  20.4km/h 19% 0.00in /  0mm WeatherDisplay:10.37 W/m2 CLR
13:58 98.1 °F /  36.7 °C 50.2 °F /  10.1 °C 29.80in /  1009hPa ESE 4.0mph /  6.4km/h 6.9mph /  11.1km/h 20% 0.00in /  0mm WeatherDisplay:10.37 W/m2 CLR
14:03 98.5 °F /  36.9 °C 50.5 °F /  10.3 °C 29.80in /  1009hPa SE 6.2mph /  10km/h 11.5mph /  18.5km/h 20% 0.00in /  0mm WeatherDisplay:10.37 W/m2 CLR
14:08 98.7 °F /  37.1 °C 50.7 °F /  10.4 °C 29.80in /  1009hPa SE 0.9mph /  1.4km/h 8.0mph /  12.9km/h 20% 0.00in /  0mm WeatherDisplay:10.37 W/m2 CLR
14:13 98.2 °F /  36.8 °C 50.3 °F /  10.2 °C 29.79in /  1008.7hPa SE 0.4mph /  0.6km/h 6.9mph /  11.1km/h 20% 0.00in /  0mm WeatherDisplay:10.37 W/m2 CLR
14:18 97.9 °F /  36.6 °C 50.0 °F /  10 °C 29.79in /  1008.7hPa SE 1.0mph /  1.6km/h 4.6mph /  7.4km/h 20% 0.00in /  0mm WeatherDisplay:10.37 W/m2 CLR
14:23 97.4 °F /  36.3 °C 49.6 °F /  9.8 °C 29.79in /  1008.7hPa SE 1.7mph /  2.7km/h 9.2mph /  14.8km/h 20% 0.00in /  0mm WeatherDisplay:10.37 W/m2 CLR
14:28 98.1 °F /  36.7 °C 50.2 °F /  10.1 °C 29.79in /  1008.7hPa Calm     20% 0.00in /  0mm WeatherDisplay:10.37 W/m2 CLR
14:33 98.7 °F /  37.1 °C 50.7 °F /  10.4 °C 29.79in /  1008.7hPa Calm   1.2mph /  1.9km/h 20% 0.00in /  0mm WeatherDisplay:10.37 W/m2 CLR
14:38 98.3 °F /  36.8 °C 50.3 °F /  10.2 °C 29.79in /  1008.7hPa Calm     20% 0.00in /  0mm WeatherDisplay:10.37 W/m2 CLR
14:43 98.6 °F /  37 °C 49.2 °F /  9.6 °C 29.78in /  1008.4hPa SE 4.7mph /  7.6km/h 11.5mph /  18.5km/h 19% 0.00in /  0mm WeatherDisplay:10.37 W/m2 CLR
14:48 98.3 °F /  36.8 °C 49.0 °F /  9.4 °C 29.78in /  1008.4hPa Calm   3.5mph /  5.6km/h 19% 0.00in /  0mm WeatherDisplay:10.37 W/m2 CLR
14:53 99.2 °F /  37.3 °C 48.2 °F /  9 °C 29.78in /  1008.4hPa SE 5.3mph /  8.5km/h 10.4mph /  16.7km/h 18% 0.00in /  0mm WeatherDisplay:10.37 W/m2 CLR
14:58 99.1 °F /  37.3 °C 46.6 °F /  8.1 °C 29.77in /  1008hPa ESE 2.4mph /  3.9km/h 4.6mph /  7.4km/h 17% 0.00in /  0mm WeatherDisplay:10.37 W/m2 CLR
15:04 98.8 °F /  37.1 °C 47.9 °F /  8.8 °C 29.77in /  1008hPa ESE 1.5mph /  2.4km/h 6.9mph /  11.1km/h 18% 0.00in /  0mm WeatherDisplay:10.37 W/m2 CLR
15:09 98.6 °F /  37 °C 49.2 °F /  9.6 °C 29.77in /  1008hPa ESE 1.0mph /  1.6km/h 5.8mph /  9.3km/h 19% 0.00in /  0mm WeatherDisplay:10.37 W/m2 CLR
15:14 99.3 °F /  37.4 °C 45.2 °F /  7.3 °C 29.76in /  1007.7hPa SE 7.6mph /  12.2km/h 12.7mph /  20.4km/h 16% 0.00in /  0mm WeatherDisplay:10.37 W/m2 CLR
15:19 98.9 °F /  37.2 °C 43.2 °F /  6.2 °C 29.76in /  1007.7hPa SE 2.8mph /  4.5km/h 6.9mph /  11.1km/h 15% 0.00in /  0mm WeatherDisplay:10.37 W/m2 CLR
15:24 99.1 °F /  37.3 °C 43.3 °F /  6.3 °C 29.76in /  1007.7hPa SE 1.6mph /  2.6km/h 9.2mph /  14.8km/h 15% 0.00in /  0mm WeatherDisplay:10.37 W/m2 CLR
15:29 99.5 °F /  37.5 °C 43.7 °F /  6.5 °C 29.76in /  1007.7hPa SE 1.5mph /  2.4km/h 9.2mph /  14.8km/h 15% 0.00in /  0mm WeatherDisplay:10.37 W/m2 CLR
15:34 99.4 °F /  37.4 °C 43.6 °F /  6.4 °C 29.76in /  1007.7hPa SE 0.5mph /  0.8km/h 3.5mph /  5.6km/h 15% 0.00in /  0mm WeatherDisplay:10.37 W/m2 CLR
Youngtown, Arizona, USA
Compliments of Weather Underground - 3 mb